Terminal Aerodrome Forecast
Issued by NWS

Home | Current Version | Previous Version | Text Only | Print | Product List | Glossary On
Versions: 1 2 3 4 5 6 7 8 9 10 11 12 13
000
FTUS43 KGRB 061723
TAFCWA
TAF
KCWA 061723Z 0618/0718 28008G14KT P6SM SCT120 SCT250
     FM070000 24008KT P6SM SCT140 BKN250 WS015/26035KT PROB30
      0703/0706 -TSRA BKN060CB BKN120
     FM070600 31008KT P6SM VCSH BKN060 WS015/01030KT
     FM070800 35008KT P6SM SCT060 BKN120
     FM071400 34012KT P6SM SCT120 SCT250=

USA.gov is the U.S. government's official web portal to all federal, state and local government web resources and services.